Main page
METAR-TAF:

METAR-TAF

Airports :

Pembrey Airport

Pembrey, Wales

latitude: 51-43N, longitude: 004-22W, elevation: 3 m

Current weather observation

The report was made 1 hour and 0 minutes ago, at 06:50 UTC
Wind 19 kt from the West/Southwest
Temperature 15°C
Humidity 82%
Pressure 1002 hPa
Visibility 10 km or more

METAR: EGOP 180650Z AUTO 25019KT 9999 // BKN060/// 15/12 Q1002

Time: 08:50 (07:50 UTC)


TAF: missing

Weather observations and forecasts of more than 4000 airports (METAR and TAF reports).

The available stations are represented by yellow and red dots on the map.

Hover mouse over dot to see the name of the station.

Then click to see weather observations and forecasts.

To change the map : click on the green buttons with a black cross to zoom in, on the green button with a dash to zoom out, or on the green arrows for adjacent maps.


METAR-TAF: